Time;durP1;ratioP1;P1;durP2;ratioP2;P2;SDS_P1;SDS_P2;PMS_P1;PMS_P2;Temp;Humidity;BMP_temperature;BMP_pressure;BME280_temperature;BME280_humidity;BME280_pressure;Samples;Min_cycle;Max_cycle;Signal;HPM_P1;HPM_P2
2022/03/22 00:00:45;;;;;;;38.22;27.48;;;;;;;19.16;42.37;102343.41;5072648;28;20055;-72
2022/03/22 00:03:11;;;;;;;42.00;26.85;;;;;;;19.09;42.24;102350.28;5072510;28;20024;-72
2022/03/22 00:05:40;;;;;;;42.58;26.17;;;;;;;19.03;42.66;102348.00;5072548;28;20024;-72
2022/03/22 00:08:06;;;;;;;46.25;28.67;;;;;;;19.15;42.43;102356.44;5072851;28;20107;-72
2022/03/22 00:10:32;;;;;;;45.90;27.42;;;;;;;19.12;42.37;102359.91;5072496;28;20383;-72
2022/03/22 00:12:58;;;;;;;39.80;28.02;;;;;;;19.07;42.69;102351.75;5072571;28;20024;-73
2022/03/22 00:15:24;;;;;;;39.30;29.80;;;;;;;19.12;42.24;102359.91;5072650;28;20067;-70
2022/03/22 00:17:50;;;;;;;52.08;30.17;;;;;;;19.10;42.64;102356.63;5072419;28;20441;-70
2022/03/22 00:20:16;;;;;;;43.85;28.13;;;;;;;19.09;42.58;102360.53;5072397;28;20060;-70
2022/03/22 00:22:42;;;;;;;42.60;30.42;;;;;;;19.10;42.50;102360.19;5072340;28;20433;-70
2022/03/22 00:25:08;;;;;;;46.45;31.05;;;;;;;19.10;42.77;102362.16;5072243;28;20040;-70
2022/03/22 00:27:53;;;;;;;49.20;31.63;;;;;;;19.11;42.67;102361.81;5072321;28;20052;-70
2022/03/22 00:30:26;;;;;;;46.28;32.63;;;;;;;19.10;42.78;102356.63;5032412;28;20029;-71
2022/03/22 00:32:54;;;;;;;43.00;33.00;;;;;;;19.11;42.84;102359.06;5032410;28;20052;-70
2022/03/22 00:35:30;;;;;;;43.92;33.63;;;;;;;19.06;43.28;102356.47;5032354;28;20022;-70
2022/03/22 00:37:59;;;;;;;43.40;34.63;;;;;;;19.22;42.74;102356.75;5032379;28;20383;-70
2022/03/22 00:40:26;;;;;;;49.85;34.80;;;;;;;19.22;42.82;102351.19;5032374;28;20025;-70
2022/03/22 00:42:53;;;;;;;48.72;34.40;;;;;;;19.26;42.89;102359.66;5032226;28;20109;-71
2022/03/22 00:45:22;;;;;;;44.40;35.88;;;;;;;19.26;43.05;102357.69;5032179;28;20039;-70
2022/03/22 00:47:49;;;;;;;51.20;36.55;;;;;;;19.36;42.79;102364.84;5032256;28;20411;-70
2022/03/22 00:50:21;;;;;;;49.30;37.65;;;;;;;19.33;42.96;102360.75;5032129;28;20030;-70
2022/03/22 00:52:47;;;;;;;50.65;34.63;;;;;;;19.44;42.70;102365.94;5032135;28;20037;-70
2022/03/22 00:55:13;;;;;;;55.53;36.45;;;;;;;19.47;42.48;102370.81;5032307;28;20420;-70
2022/03/22 00:57:41;;;;;;;53.58;37.08;;;;;;;19.40;42.51;102358.28;5032237;28;20112;-70
2022/03/22 01:00:12;;;;;;;55.33;38.95;;;;;;;19.36;42.74;102360.09;5032160;28;20495;-70
2022/03/22 01:02:40;;;;;;;52.45;36.45;;;;;;;19.39;42.71;102355.84;5032028;28;20030;-71
2022/03/22 01:05:11;;;;;;;57.17;37.42;;;;;;;19.32;42.73;102353.59;5030739;28;20037;-87
2022/03/22 01:07:38;;;;;;;46.85;35.88;;;;;;;19.41;42.45;102356.31;5032095;28;20025;-71
2022/03/22 01:10:06;;;;;;;54.63;37.83;;;;;;;19.32;42.74;102359.13;5031932;28;20026;-70
2022/03/22 01:12:34;;;;;;;55.30;37.60;;;;;;;19.24;42.71;102351.69;5032281;28;20424;-70
2022/03/22 01:15:00;;;;;;;54.47;37.83;;;;;;;19.25;42.72;102355.25;5031914;28;20033;-70
2022/03/22 01:17:26;;;;;;;55.63;41.00;;;;;;;19.29;42.67;102350.69;5031928;28;20034;-70
2022/03/22 01:19:51;;;;;;;58.85;40.25;;;;;;;19.25;42.53;102358.84;5031917;28;20030;-71
2022/03/22 01:22:17;;;;;;;60.42;38.78;;;;;;;19.23;42.74;102354.78;5031965;28;20029;-70
2022/03/22 01:24:44;;;;;;;53.85;36.90;;;;;;;19.24;42.53;102365.53;5031746;28;20029;-70
2022/03/22 01:27:11;;;;;;;56.45;38.13;;;;;;;19.18;42.74;102361.31;5031991;28;20392;-70
2022/03/22 01:29:37;;;;;;;52.22;39.42;;;;;;;19.19;42.59;102360.16;5063323;28;20044;-70
2022/03/22 01:32:04;;;;;;;60.38;39.15;;;;;;;19.21;42.48;102359.84;5071808;28;20025;-81
2022/03/22 01:34:30;;;;;;;56.75;40.33;;;;;;;19.19;42.56;102354.63;5072040;28;20024;-70
2022/03/22 01:36:55;;;;;;;54.17;39.97;;;;;;;19.12;42.74;102360.72;5075328;28;20032;-71
2022/03/22 01:39:21;;;;;;;57.22;40.22;;;;;;;19.25;42.37;102352.47;5075284;28;20021;-70
2022/03/22 01:41:47;;;;;;;56.72;41.25;;;;;;;19.23;42.27;102352.00;5075000;28;20035;-70
2022/03/22 01:44:12;;;;;;;57.67;39.88;;;;;;;19.17;42.43;102351.38;5075112;28;20511;-70
2022/03/22 01:46:39;;;;;;;60.30;40.83;;;;;;;19.20;42.35;102350.72;5075200;28;20039;-70
2022/03/22 01:49:05;;;;;;;57.33;39.75;;;;;;;19.19;42.25;102345.50;5075035;28;20031;-70
2022/03/22 01:51:33;;;;;;;60.15;41.25;;;;;;;19.14;42.38;102352.06;5075086;28;20070;-70
2022/03/22 01:53:59;;;;;;;62.65;44.17;;;;;;;19.01;42.62;102358.63;5074949;28;20066;-71
2022/03/22 01:56:25;;;;;;;59.42;40.17;;;;;;;19.03;42.57;102346.03;5074855;28;20530;-70
2022/03/22 01:58:51;;;;;;;59.63;40.97;;;;;;;19.03;42.68;102345.25;5075156;28;20048;-70
2022/03/22 02:06:56;;;;;;;59.65;41.13;;;;;;;18.83;42.87;102342.06;5075106;28;20089;-70
2022/03/22 02:09:22;;;;;;;50.20;37.17;;;;;;;18.78;42.89;102336.69;5074911;28;20059;-70
2022/03/22 02:11:47;;;;;;;60.63;41.85;;;;;;;18.88;42.53;102345.78;5056846;28;20474;-70
2022/03/22 02:14:13;;;;;;;51.90;40.25;;;;;;;18.85;42.40;102337.00;5074916;28;20033;-70
2022/03/22 02:16:39;;;;;;;56.55;41.03;;;;;;;18.81;42.55;102337.97;5074798;28;20040;-87
2022/03/22 02:19:09;;;;;;;63.65;43.00;;;;;;;18.81;42.60;102336.00;5074752;28;20035;-85
2022/03/22 02:21:39;;;;;;;60.40;42.97;;;;;;;18.82;42.49;102329.38;5074501;28;20157;-70
2022/03/22 02:24:05;;;;;;;67.43;43.13;;;;;;;18.87;42.52;102330.31;5057281;28;20032;-70
2022/03/22 02:26:31;;;;;;;68.00;42.53;;;;;;;18.87;42.50;102324.78;5074301;28;20032;-70
2022/03/22 02:28:56;;;;;;;63.83;45.05;;;;;;;18.84;42.62;102331.78;5073807;28;20056;-87
2022/03/22 02:31:23;;;;;;;62.50;42.92;;;;;;;18.85;42.68;102325.91;5074374;28;20024;-70
2022/03/22 02:33:49;;;;;;;63.40;42.55;;;;;;;18.91;42.71;102326.56;5074227;28;20021;-70
2022/03/22 02:36:15;;;;;;;68.60;43.28;;;;;;;18.99;42.49;102314.63;5074431;28;20083;-70
2022/03/22 02:38:42;;;;;;;61.63;41.78;;;;;;;19.02;42.42;102322.25;5074122;28;20376;-70
2022/03/22 02:41:14;;;;;;;67.70;43.03;;;;;;;19.02;42.44;102316.72;5074093;28;20409;-71
2022/03/22 02:43:40;;;;;;;61.58;43.45;;;;;;;19.01;42.47;102315.09;5074035;28;20478;-70
2022/03/22 02:46:06;;;;;;;60.25;43.42;;;;;;;19.06;42.46;102319.66;5073314;28;20039;-71
2022/03/22 02:48:34;;;;;;;63.22;42.53;;;;;;;19.08;42.43;102314.59;5055874;28;20024;-70
2022/03/22 02:51:00;;;;;;;73.93;43.88;;;;;;;19.03;42.43;102314.75;5074056;28;20135;-70
2022/03/22 02:53:26;;;;;;;61.03;44.03;;;;;;;19.11;42.50;102314.72;5073736;28;20024;-70
2022/03/22 02:55:51;;;;;;;61.15;42.70;;;;;;;19.11;42.33;102314.72;5055495;28;20036;-71
2022/03/22 02:58:17;;;;;;;65.05;42.00;;;;;;;19.11;42.36;102303.63;5073703;28;20032;-71
2022/03/22 03:00:42;;;;;;;70.68;40.83;;;;;;;19.12;42.18;102307.25;5073740;28;20024;-71
2022/03/22 03:03:08;;;;;;;56.03;41.55;;;;;;;19.11;42.34;102308.38;5073612;28;20468;-70
2022/03/22 03:05:34;;;;;;;59.42;41.22;;;;;;;19.10;42.47;102304.78;5073789;28;20039;-70
2022/03/22 03:08:00;;;;;;;63.58;42.92;;;;;;;19.11;42.34;102308.38;5073552;28;20383;-71
2022/03/22 03:10:25;;;;;;;57.92;41.53;;;;;;;19.10;42.38;102307.56;5037650;28;20056;-70
2022/03/22 03:13:02;;;;;;;67.60;41.28;;;;;;;18.99;42.94;102302.75;5053426;28;20064;-70
2022/03/22 03:15:28;;;;;;;70.38;46.28;;;;;;;19.13;42.37;102306.91;5035511;28;20025;-71
2022/03/22 03:17:54;;;;;;;61.58;42.03;;;;;;;19.14;42.56;102313.25;5053407;28;20441;-71
2022/03/22 03:20:19;;;;;;;67.05;45.13;;;;;;;19.18;42.49;102314.22;5053361;28;20108;-70
2022/03/22 03:22:45;;;;;;;64.43;45.00;;;;;;;19.16;42.69;102308.19;5053277;28;20514;-70
2022/03/22 03:25:10;;;;;;;69.85;45.65;;;;;;;19.21;42.40;102313.56;5053149;28;20061;-70
2022/03/22 03:27:37;;;;;;;72.82;47.55;;;;;;;19.21;42.54;102309.97;5053472;28;20057;-70
2022/03/22 03:30:07;;;;;;;71.82;47.70;;;;;;;19.10;42.94;102306.75;5053066;28;20161;-71
2022/03/22 03:32:33;;;;;;;66.03;46.20;;;;;;;19.12;42.63;102308.06;5052992;28;20109;-71
2022/03/22 03:34:59;;;;;;;61.53;43.30;;;;;;;19.11;42.58;102297.28;5053344;28;20108;-71
2022/03/22 03:37:25;;;;;;;69.13;45.25;;;;;;;19.13;42.57;102303.34;5053014;28;20033;-70
2022/03/22 03:39:51;;;;;;;63.55;44.10;;;;;;;19.10;42.66;102303.97;5052957;28;20389;-70
2022/03/22 03:42:17;;;;;;;74.20;46.15;;;;;;;19.02;42.86;102294.56;5052816;28;20025;-70
2022/03/22 03:47:26;;;;;;;76.10;45.25;;;;;;;18.96;43.02;102297.84;5052896;28;20032;-71
2022/03/22 03:50:00;;;;;;;73.63;46.42;;;;;;;18.92;43.01;102305.22;5052783;28;20029;-71
2022/03/22 03:52:30;;;;;;;69.68;44.65;;;;;;;18.94;42.84;102303.72;5053051;28;20025;-71
2022/03/22 03:54:58;;;;;;;76.97;45.25;;;;;;;18.90;43.03;102301.97;5052668;28;20395;-70
2022/03/22 03:57:25;;;;;;;73.03;50.08;;;;;;;18.88;42.91;102310.59;5052367;28;20028;-71
2022/03/22 03:59:51;;;;;;;74.80;47.03;;;;;;;18.90;42.90;102318.59;5052642;28;20052;-70
2022/03/22 04:02:17;;;;;;;67.18;47.70;;;;;;;18.84;43.19;102309.63;5052505;28;20021;-70
2022/03/22 04:04:44;;;;;;;77.03;46.40;;;;;;;18.78;43.20;102309.00;5052558;28;20069;-71
2022/03/22 04:07:12;;;;;;;78.15;50.63;;;;;;;18.83;43.31;102308.81;5052541;28;20029;-70
2022/03/22 04:09:39;;;;;;;66.60;46.40;;;;;;;18.81;43.16;102305.56;5052511;28;20108;-70
2022/03/22 04:12:06;;;;;;;75.15;46.67;;;;;;;18.79;43.15;102310.63;5052471;28;20036;-71
2022/03/22 04:14:32;;;;;;;73.25;47.40;;;;;;;18.74;43.42;102308.06;5052661;28;20021;-78
2022/03/22 04:16:58;;;;;;;70.28;44.80;;;;;;;18.75;43.44;102308.88;5052735;28;20368;-71
2022/03/22 04:19:27;;;;;;;69.45;44.90;;;;;;;18.69;43.68;102311.00;5052360;28;20028;-72
2022/03/22 04:21:53;;;;;;;64.30;44.45;;;;;;;18.78;43.42;102309.00;5052476;28;20100;-70
2022/03/22 04:24:19;;;;;;;74.57;45.78;;;;;;;18.67;43.75;102313.28;5052270;28;20028;-71
2022/03/22 04:26:46;;;;;;;75.65;46.92;;;;;;;18.80;43.30;102311.44;5052251;28;20049;-70
2022/03/22 04:34:45;;;;;;;68.93;43.55;;;;;;;18.76;43.66;102316.03;5052231;28;20095;-70
2022/03/22 04:37:13;;;;;;;69.30;46.78;;;;;;;18.79;43.56;102310.63;5052168;28;20040;-72
2022/03/22 04:39:44;;;;;;;77.80;44.15;;;;;;;18.80;43.68;102320.56;5034289;28;20087;-71
2022/03/22 04:42:11;;;;;;;81.43;45.50;;;;;;;18.69;43.93;102311.00;5034344;28;20052;-70
2022/03/22 04:44:37;;;;;;;77.43;46.50;;;;;;;18.72;43.81;102304.78;5052304;28;20036;-71
2022/03/22 04:47:03;;;;;;;81.75;46.25;;;;;;;18.68;44.18;102312.13;5052139;28;20029;-70
2022/03/22 04:49:29;;;;;;;73.53;45.30;;;;;;;18.78;43.99;102305.41;5034491;28;20021;-71
2022/03/22 04:57:25;;;;;;;72.32;43.45;;;;;;;18.79;44.20;102307.03;5052331;28;20607;-71
2022/03/22 04:59:54;;;;;;;66.43;41.15;;;;;;;18.82;44.06;102306.41;5051983;28;20029;-71
2022/03/22 05:02:20;;;;;;;69.38;42.92;;;;;;;18.91;43.96;102303.59;5051943;28;20070;-70
2022/03/22 05:04:45;;;;;;;75.88;44.67;;;;;;;18.77;44.22;102310.16;5033923;28;20078;-70
2022/03/22 05:07:11;;;;;;;78.65;45.67;;;;;;;18.83;44.04;102316.31;5051920;28;20025;-70
2022/03/22 05:09:37;;;;;;;72.53;42.67;;;;;;;18.81;44.03;102316.63;5052354;28;20494;-71
2022/03/22 05:12:03;;;;;;;62.63;40.13;;;;;;;18.85;43.83;102314.03;5055707;28;20044;-71
2022/03/22 05:14:29;;;;;;;77.55;43.85;;;;;;;18.78;44.08;102311.78;5055846;28;20103;-71
2022/03/22 05:16:56;;;;;;;64.35;42.50;;;;;;;18.78;43.90;102317.31;5055682;28;20484;-70
2022/03/22 05:19:23;;;;;;;71.93;44.28;;;;;;;18.81;43.78;102311.09;5055583;28;20017;-71
2022/03/22 05:21:49;;;;;;;69.32;41.15;;;;;;;18.82;43.69;102306.41;5055672;28;20424;-71
2022/03/22 05:24:14;;;;;;;75.75;42.80;;;;;;;18.77;43.83;102310.16;5055513;28;20120;-71
2022/03/22 05:26:40;;;;;;;70.78;44.30;;;;;;;18.75;43.75;102306.91;5055519;28;20108;-71
2022/03/22 05:29:06;;;;;;;73.50;40.75;;;;;;;18.72;43.71;102304.78;5055238;28;20040;-70
2022/03/22 05:31:33;;;;;;;77.55;43.97;;;;;;;18.63;44.01;102306.72;5055407;28;20044;-71
2022/03/22 05:33:59;;;;;;;71.80;44.35;;;;;;;18.63;44.12;102314.22;5055372;28;20115;-71
2022/03/22 05:36:25;;;;;;;75.55;42.30;;;;;;;18.64;43.66;102313.09;5055257;28;20048;-71
2022/03/22 05:38:52;;;;;;;74.70;43.67;;;;;;;18.67;43.82;102310.50;5055292;28;20450;-71
2022/03/22 05:41:18;;;;;;;72.40;41.38;;;;;;;18.57;43.93;102319.94;5037341;28;20482;-70
2022/03/22 05:43:44;;;;;;;71.93;42.00;;;;;;;18.47;44.06;102317.53;5055245;28;20036;-70
2022/03/22 05:46:10;;;;;;;74.95;42.45;;;;;;;18.41;44.35;102310.53;5055118;28;20036;-70
2022/03/22 05:48:38;;;;;;;69.53;40.28;;;;;;;18.39;44.21;102315.59;5055171;28;20025;-70
2022/03/22 05:51:05;;;;;;;75.18;41.70;;;;;;;18.39;44.36;102320.31;5055282;28;20513;-70
2022/03/22 05:53:30;;;;;;;75.50;43.97;;;;;;;18.38;44.25;102313.16;5055199;28;20425;-71
2022/03/22 05:55:56;;;;;;;78.55;43.05;;;;;;;18.36;44.59;102313.44;5055011;28;20025;-70
2022/03/22 05:58:22;;;;;;;77.32;42.90;;;;;;;18.25;44.50;102315.75;5055070;28;20094;-70
2022/03/22 06:00:47;;;;;;;73.38;42.42;;;;;;;18.29;44.48;102319.50;5037267;28;20127;-71
2022/03/22 06:03:14;;;;;;;81.60;42.25;;;;;;;18.29;44.68;102322.28;5055002;28;20033;-70
2022/03/22 06:05:39;;;;;;;63.67;38.42;;;;;;;18.22;44.73;102321.97;5054729;28;20467;-71
2022/03/22 06:08:05;;;;;;;69.13;39.33;;;;;;;18.27;44.67;102324.53;5054668;28;20032;-72
2022/03/22 06:10:31;;;;;;;67.60;40.95;;;;;;;18.30;44.63;102318.38;5054655;28;20112;-70
2022/03/22 06:12:57;;;;;;;71.78;40.53;;;;;;;18.26;44.72;102322.91;5054764;28;20403;-71
2022/03/22 06:15:30;;;;;;;68.93;40.88;;;;;;;18.18;44.96;102325.69;5054520;28;20037;-71
2022/03/22 06:18:06;;;;;;;68.65;40.47;;;;;;;18.19;44.81;102325.34;5054703;28;20025;-70
2022/03/22 06:20:33;;;;;;;63.53;38.85;;;;;;;18.24;44.73;102325.19;5054474;28;20115;-70
2022/03/22 06:23:01;;;;;;;79.47;40.67;;;;;;;18.25;44.83;102328.78;5054438;28;20083;-71
2022/03/22 06:25:27;;;;;;;70.10;39.53;;;;;;;18.21;44.89;102325.88;5054382;28;20032;-86
2022/03/22 06:27:54;;;;;;;74.68;39.90;;;;;;;18.21;44.91;102330.56;5054160;28;20036;-71
2022/03/22 06:30:21;;;;;;;72.32;40.38;;;;;;;18.18;44.96;102325.69;5054562;28;20036;-71
2022/03/22 06:32:48;;;;;;;65.03;39.33;;;;;;;18.26;44.85;102333.97;5054367;28;20090;-70
2022/03/22 06:35:15;;;;;;;65.10;38.38;;;;;;;18.25;44.92;102335.13;5054294;28;20041;-86
2022/03/22 06:37:41;;;;;;;69.82;39.08;;;;;;;18.26;44.83;102345.03;5054129;28;20025;-70
2022/03/22 06:40:08;;;;;;;68.57;40.67;;;;;;;18.25;45.02;102343.41;5036436;28;20071;-70
2022/03/22 06:42:34;;;;;;;74.15;37.65;;;;;;;18.27;44.92;102343.09;5054050;28;20105;-71
2022/03/22 06:45:00;;;;;;;62.60;37.58;;;;;;;18.33;44.87;102344.56;5054338;28;20078;-87
2022/03/22 06:47:26;;;;;;;63.63;38.08;;;;;;;18.29;44.94;102344.41;5054718;28;20021;-82
2022/03/22 06:49:51;;;;;;;62.22;36.97;;;;;;;18.34;45.05;102343.41;5054184;28;20033;-71
2022/03/22 06:52:17;;;;;;;65.03;35.88;;;;;;;18.30;44.95;102346.03;5053911;28;20032;-71
2022/03/22 06:54:43;;;;;;;59.75;34.10;;;;;;;18.36;44.78;102346.66;5054029;28;20459;-70
2022/03/22 06:57:08;;;;;;;53.72;33.95;;;;;;;18.39;44.89;102354.31;5054017;28;20495;-71
2022/03/22 06:59:34;;;;;;;54.65;34.20;;;;;;;18.43;44.99;102352.50;5054035;28;20070;-71
2022/03/22 07:02:00;;;;;;;55.28;33.55;;;;;;;18.44;44.80;102358.84;5054018;28;20020;-70
2022/03/22 07:04:27;;;;;;;52.50;32.78;;;;;;;18.32;45.43;102353.19;5053765;28;20421;-77
2022/03/22 07:06:53;;;;;;;52.20;30.20;;;;;;;18.42;45.29;102352.84;5053550;28;20021;-70
2022/03/22 07:09:18;;;;;;;54.22;31.50;;;;;;;18.46;45.11;102356.59;5053395;28;20017;-71
2022/03/22 07:11:49;;;;;;;50.47;30.60;;;;;;;18.51;45.09;102353.66;5053432;28;20218;-71
2022/03/22 07:14:17;;;;;;;48.72;27.98;;;;;;;18.60;45.09;102348.94;5053743;28;20492;-81
2022/03/22 07:16:42;;;;;;;56.17;28.13;;;;;;;18.62;45.36;102357.72;5053617;28;20075;-83
2022/03/22 07:19:08;;;;;;;44.53;28.20;;;;;;;18.73;45.08;102366.50;5053752;28;20067;-71
2022/03/22 07:21:33;;;;;;;40.70;28.40;;;;;;;18.63;45.52;102364.06;5035810;28;20047;-76
2022/03/22 07:23:59;;;;;;;42.17;27.20;;;;;;;18.76;45.40;102352.84;5035351;28;20114;-70
2022/03/22 07:26:24;;;;;;;41.58;26.13;;;;;;;18.91;45.32;102365.34;5035331;28;20384;-70
2022/03/22 07:28:50;;;;;;;39.80;24.75;;;;;;;19.04;44.96;102361.56;5053005;28;20389;-70
2022/03/22 07:31:16;;;;;;;39.17;26.23;;;;;;;19.10;44.97;102365.75;5053254;28;20028;-69
2022/03/22 07:33:41;;;;;;;44.97;25.75;;;;;;;19.10;45.13;102362.16;5053128;28;20031;-70
2022/03/22 07:36:07;;;;;;;39.42;24.02;;;;;;;19.25;45.09;102369.91;5053149;28;20116;-86
2022/03/22 07:38:32;;;;;;;37.08;24.92;;;;;;;19.33;44.88;102363.53;5053266;28;20032;-86
2022/03/22 07:40:58;;;;;;;39.00;25.95;;;;;;;19.38;44.75;102360.56;5053228;28;20048;-69
2022/03/22 07:43:23;;;;;;;36.55;24.13;;;;;;;19.47;45.21;102365.25;5052942;28;20029;-70
2022/03/22 07:45:49;;;;;;;41.70;26.40;;;;;;;19.56;44.68;102368.78;5052969;28;20052;-72
2022/03/22 07:48:16;;;;;;;37.33;24.00;;;;;;;19.59;44.81;102377.31;5052682;28;20087;-71
2022/03/22 07:53:26;;;;;;;37.75;24.70;;;;;;;19.84;44.39;102381.06;5052957;28;20036;-70
2022/03/22 07:55:51;;;;;;;35.65;22.38;;;;;;;19.91;44.35;102381.34;5035226;28;20033;-70
2022/03/22 07:58:17;;;;;;;37.92;21.70;;;;;;;19.96;44.45;102388.66;5053002;28;20533;-70
2022/03/22 08:00:43;;;;;;;30.88;20.52;;;;;;;19.99;44.42;102387.97;5052818;28;20029;-70
2022/03/22 08:03:12;;;;;;;34.92;20.65;;;;;;;20.03;44.37;102391.72;5053224;28;20029;-70
2022/03/22 08:05:39;;;;;;;36.53;19.95;;;;;;;19.99;44.57;102387.16;5053127;28;20032;-85
2022/03/22 08:08:05;;;;;;;36.97;19.63;;;;;;;20.14;44.21;102387.38;5034683;28;20068;-72
2022/03/22 08:10:32;;;;;;;28.23;20.35;;;;;;;20.17;44.14;102394.19;5052614;28;20071;-70
2022/03/22 08:12:59;;;;;;;33.53;21.15;;;;;;;20.24;44.01;102392.50;5053270;28;20029;-72
2022/03/22 08:15:25;;;;;;;34.58;20.77;;;;;;;20.34;43.72;102396.03;5053054;28;20033;-85
2022/03/22 08:17:51;;;;;;;35.28;21.05;;;;;;;20.32;43.73;102396.34;5052513;28;20017;-72
2022/03/22 08:20:17;;;;;;;30.42;18.63;;;;;;;20.33;43.68;102392.44;5049990;28;20025;-72
2022/03/22 08:22:53;;;;;;;32.08;20.25;;;;;;;20.25;44.17;102393.31;5051398;28;20090;-72
2022/03/22 08:25:24;;;;;;;30.08;21.10;;;;;;;20.37;43.76;102390.59;5051683;28;20055;-72
2022/03/22 08:27:50;;;;;;;35.67;20.65;;;;;;;20.49;43.50;102401.00;5051918;28;20520;-72
2022/03/22 08:30:20;;;;;;;33.70;21.05;;;;;;;20.47;43.62;102381.06;5052557;28;20032;-72
2022/03/22 08:32:47;;;;;;;35.53;19.25;;;;;;;20.44;43.57;102404.78;5052617;28;20383;-72
2022/03/22 08:35:12;;;;;;;30.48;19.23;;;;;;;20.37;43.68;102393.38;5050577;28;20033;-72
2022/03/22 08:37:38;;;;;;;29.10;19.63;;;;;;;20.41;43.63;102401.84;5051046;28;20025;-73
2022/03/22 08:40:04;;;;;;;26.63;18.73;;;;;;;20.50;43.45;102397.88;5051952;28;20029;-73
2022/03/22 08:42:30;;;;;;;31.90;18.20;;;;;;;20.55;43.50;102409.91;5052378;28;20500;-71
2022/03/22 08:44:55;;;;;;;25.33;18.40;;;;;;;20.65;43.35;102409.50;5055192;28;20025;-72
2022/03/22 08:47:21;;;;;;;30.63;19.27;;;;;;;20.64;43.33;102407.88;5056523;28;20104;-71
2022/03/22 08:49:48;;;;;;;30.65;19.15;;;;;;;20.78;43.10;102413.94;5056390;28;20021;-72
2022/03/22 08:52:14;;;;;;;36.05;20.65;;;;;;;20.93;42.85;102416.09;5038741;28;20418;-72
2022/03/22 08:54:39;;;;;;;40.90;22.75;;;;;;;20.95;42.94;102410.19;5056290;28;20029;-72
2022/03/22 08:57:05;;;;;;;30.65;18.98;;;;;;;21.05;42.67;102424.44;5056158;28;20021;-72
2022/03/22 08:59:31;;;;;;;31.17;19.45;;;;;;;21.07;42.86;102429.66;5056523;28;20025;-72
2022/03/22 09:01:57;;;;;;;33.58;20.25;;;;;;;21.12;42.54;102426.66;5056076;28;20553;-73
2022/03/22 09:07:07;;;;;;;28.77;19.95;;;;;;;21.25;42.58;102430.28;5056271;28;20090;-78
2022/03/22 09:09:32;;;;;;;30.08;18.73;;;;;;;21.46;42.17;102431.03;5056548;28;20426;-86
2022/03/22 09:11:58;;;;;;;32.72;19.48;;;;;;;21.55;41.99;102430.91;5056429;28;20055;-89
2022/03/22 09:14:24;;;;;;;34.63;19.70;;;;;;;21.56;42.00;102426.97;5056321;28;20392;-75
2022/03/22 09:16:49;;;;;;;34.97;19.08;;;;;;;21.48;42.02;102442.63;5056242;28;20041;-72
2022/03/22 09:19:15;;;;;;;45.13;21.60;;;;;;;21.50;42.15;102439.47;5055796;28;20025;-72
2022/03/22 09:21:41;;;;;;;30.98;17.83;;;;;;;21.57;42.00;102440.53;5038209;28;20039;-73
2022/03/22 09:24:07;;;;;;;40.70;20.50;;;;;;;21.62;41.67;102438.69;5038035;28;20479;-72
2022/03/22 09:26:33;;;;;;;29.02;19.38;;;;;;;21.71;41.49;102439.38;5055811;28;20061;-73
2022/03/22 09:28:59;;;;;;;33.75;19.00;;;;;;;21.62;41.40;102439.50;5055321;28;20476;-71
2022/03/22 09:31:24;;;;;;;47.58;20.05;;;;;;;21.70;41.39;102440.53;5056325;28;20037;-89
2022/03/22 09:33:53;;;;;;;33.22;17.60;;;;;;;21.70;41.35;102440.53;5056703;28;20437;-90
2022/03/22 09:36:19;;;;;;;52.90;19.63;;;;;;;21.73;41.35;102446.22;5055594;28;20487;-70
2022/03/22 09:38:46;;;;;;;23.73;14.98;;;;;;;21.77;40.94;102438.81;5055534;28;20057;-71
2022/03/22 09:41:16;;;;;;;23.92;15.07;;;;;;;21.65;41.12;102440.75;5055394;28;20029;-72
2022/03/22 09:43:48;;;;;;;21.30;13.25;;;;;;;21.57;41.02;102428.59;5055543;28;20025;-89
2022/03/22 09:46:22;;;;;;;24.65;14.27;;;;;;;21.74;40.77;102427.53;5056356;28;20033;-89
2022/03/22 09:48:48;;;;;;;29.48;15.27;;;;;;;21.89;40.56;102437.97;5056719;28;20031;-87
2022/03/22 09:54:00;;;;;;;28.27;14.20;;;;;;;21.95;40.44;102432.97;5056625;28;20112;-90
2022/03/22 09:56:30;;;;;;;28.15;13.57;;;;;;;21.97;40.06;102431.47;5055408;28;20074;-89
2022/03/22 09:58:58;;;;;;;26.17;14.68;;;;;;;21.90;40.06;102439.59;5056397;28;20025;-87
2022/03/22 10:01:24;;;;;;;27.60;13.95;;;;;;;21.96;40.08;102440.16;5056197;28;20095;-84
2022/03/22 10:04:01;;;;;;;30.42;14.68;;;;;;;22.01;39.59;102435.19;5054202;28;20379;-89
2022/03/22 10:06:28;;;;;;;22.30;13.95;;;;;;;22.01;39.69;102437.97;5053925;28;20021;-80
2022/03/22 10:08:54;;;;;;;23.00;14.25;;;;;;;22.07;39.41;102441.31;5036057;28;20059;-72
2022/03/22 10:11:20;;;;;;;21.70;14.23;;;;;;;22.12;39.47;102439.13;5053663;28;20513;-84
2022/03/22 10:13:53;;;;;;;20.33;14.20;;;;;;;22.14;39.17;102436.81;5053772;28;20017;-72
2022/03/22 10:16:18;;;;;;;20.20;12.48;;;;;;;22.01;39.66;102440.75;5053555;28;20056;-72
2022/03/22 10:18:44;;;;;;;24.67;13.93;;;;;;;21.98;39.70;102446.19;5053683;28;20064;-72
2022/03/22 10:21:09;;;;;;;30.27;13.93;;;;;;;22.20;39.41;102442.94;5053396;28;20028;-72
2022/03/22 10:23:56;;;;;;;18.20;11.38;;;;;;;22.10;39.32;102452.59;5053842;28;20021;-72
2022/03/22 10:26:35;;;;;;;21.48;13.55;;;;;;;22.30;38.99;102442.47;5033734;28;20490;-72
2022/03/22 10:29:01;;;;;;;28.83;12.65;;;;;;;22.47;39.09;102449.72;5054164;28;20803;-71
2022/03/22 10:31:40;;;;;;;22.02;11.95;;;;;;;22.38;38.84;102443.50;5053073;28;20120;-72
2022/03/22 10:34:08;;;;;;;27.92;13.52;;;;;;;22.37;39.10;102444.66;5033721;28;20112;-72
2022/03/22 10:36:36;;;;;;;20.10;12.05;;;;;;;22.21;38.98;102440.97;5035379;28;20036;-72
2022/03/22 10:39:05;;;;;;;23.10;12.68;;;;;;;22.00;39.10;102441.91;5050946;28;20024;-72
2022/03/22 10:41:33;;;;;;;25.90;13.93;;;;;;;21.91;39.39;102438.41;5053183;28;20025;-71
2022/03/22 10:44:17;;;;;;;27.02;13.02;;;;;;;21.88;39.46;102436.34;5049816;28;20032;-72
2022/03/22 10:46:43;;;;;;;31.05;13.07;;;;;;;21.97;39.39;102441.78;5048634;28;20029;-72
2022/03/22 10:49:11;;;;;;;30.60;13.73;;;;;;;21.95;39.40;102441.34;5053109;28;20021;-76
2022/03/22 10:51:43;;;;;;;20.73;12.73;;;;;;;21.96;39.59;102429.03;5052575;28;20178;-71
2022/03/22 10:54:12;;;;;;;18.70;13.43;;;;;;;22.19;39.41;102432.16;5051426;28;20021;-71
2022/03/22 10:56:44;;;;;;;23.30;12.63;;;;;;;22.18;39.41;102433.31;5051568;28;20127;-71
2022/03/22 10:59:13;;;;;;;24.65;13.40;;;;;;;22.30;39.50;102438.88;5034541;28;20103;-71
2022/03/22 11:01:43;;;;;;;17.47;11.43;;;;;;;22.23;39.16;102444.22;5050368;28;20021;-72
2022/03/22 11:04:10;;;;;;;21.77;11.98;;;;;;;22.21;39.24;102440.97;5052986;28;20048;-73
2022/03/22 11:06:38;;;;;;;22.60;12.23;;;;;;;22.16;39.21;102442.03;5047104;28;20080;-73
2022/03/22 11:09:04;;;;;;;21.63;12.50;;;;;;;22.21;38.86;102435.38;5052280;28;20443;-73
2022/03/22 11:11:31;;;;;;;24.17;13.95;;;;;;;22.33;38.91;102425.03;5052164;28;20082;-71
2022/03/22 11:13:58;;;;;;;27.27;12.85;;;;;;;22.44;38.75;102425.34;5052452;28;20049;-72
2022/03/22 11:16:29;;;;;;;17.92;12.50;;;;;;;22.32;39.11;102430.97;5035296;28;20090;-72
2022/03/22 11:18:59;;;;;;;23.90;12.35;;;;;;;22.40;39.08;102410.53;5052743;28;20028;-73
2022/03/22 11:21:26;;;;;;;19.85;13.70;;;;;;;22.37;39.09;102419.59;5033974;28;20035;-72
2022/03/22 11:24:03;;;;;;;20.42;12.13;;;;;;;22.71;38.64;102427.31;5035428;28;20431;-72
2022/03/22 11:26:28;;;;;;;19.25;12.43;;;;;;;22.70;38.46;102422.94;5053214;28;20483;-72
2022/03/22 11:28:54;;;;;;;19.45;12.90;;;;;;;22.67;38.54;102422.81;5053034;28;20124;-72
2022/03/22 11:31:21;;;;;;;21.55;13.25;;;;;;;22.94;38.22;102418.41;5052893;28;20028;-91
2022/03/22 11:36:46;;;;;;;19.00;11.75;;;;;;;23.03;38.07;102421.03;5051777;28;20068;-72
2022/03/22 11:39:17;;;;;;;20.23;11.48;;;;;;;23.08;38.02;102424.38;5053307;28;20017;-73